sensor_id;sensor_type;location;lat;lon;timestamp;pressure;altitude;pressure_sealevel;temperature;humidity
11682;BME280;5897;42.640;23.310;2023-04-09T00:00:20;94088.59;;;7.15;100.00
11682;BME280;5897;42.640;23.310;2023-04-09T00:02:47;94081.34;;;7.12;100.00
11682;BME280;5897;42.640;23.310;2023-04-09T00:05:14;94082.47;;;7.14;100.00
11682;BME280;5897;42.640;23.310;2023-04-09T00:07:41;94083.94;;;7.19;100.00
11682;BME280;5897;42.640;23.310;2023-04-09T00:10:08;94090.00;;;7.26;100.00
11682;BME280;5897;42.640;23.310;2023-04-09T00:12:34;94091.44;;;7.34;100.00
11682;BME280;5897;42.640;23.310;2023-04-09T00:15:04;94086.03;;;7.38;100.00
11682;BME280;5897;42.640;23.310;2023-04-09T00:17:31;94095.59;;;7.39;100.00
11682;BME280;5897;42.640;23.310;2023-04-09T00:19:58;94094.00;;;7.45;100.00
11682;BME280;5897;42.640;23.310;2023-04-09T00:22:24;94094.13;;;7.34;100.00
11682;BME280;5897;42.640;23.310;2023-04-09T00:24:51;94087.97;;;7.37;100.00
11682;BME280;5897;42.640;23.310;2023-04-09T00:27:18;94088.41;;;7.32;100.00
11682;BME280;5897;42.640;23.310;2023-04-09T00:29:45;94089.09;;;7.36;100.00
11682;BME280;5897;42.640;23.310;2023-04-09T00:32:13;94086.84;;;7.35;100.00
11682;BME280;5897;42.640;23.310;2023-04-09T00:34:40;94087.59;;;7.35;100.00
11682;BME280;5897;42.640;23.310;2023-04-09T00:37:07;94095.66;;;7.35;100.00
11682;BME280;5897;42.640;23.310;2023-04-09T00:39:33;94106.34;;;7.42;100.00
11682;BME280;5897;42.640;23.310;2023-04-09T00:42:00;94090.97;;;7.43;100.00
11682;BME280;5897;42.640;23.310;2023-04-09T00:44:27;94097.78;;;7.51;100.00
11682;BME280;5897;42.640;23.310;2023-04-09T00:46:55;94097.81;;;7.47;100.00
11682;BME280;5897;42.640;23.310;2023-04-09T00:49:25;94095.06;;;7.54;100.00
11682;BME280;5897;42.640;23.310;2023-04-09T00:51:53;94091.94;;;7.56;100.00
11682;BME280;5897;42.640;23.310;2023-04-09T00:54:19;94097.66;;;7.61;100.00
11682;BME280;5897;42.640;23.310;2023-04-09T00:56:46;94082.31;;;7.58;100.00
11682;BME280;5897;42.640;23.310;2023-04-09T00:59:13;94100.19;;;7.72;100.00
11682;BME280;5897;42.640;23.310;2023-04-09T01:01:40;94092.50;;;7.74;100.00
11682;BME280;5897;42.640;23.310;2023-04-09T01:04:07;94094.38;;;7.77;100.00
11682;BME280;5897;42.640;23.310;2023-04-09T01:06:41;94094.72;;;7.79;100.00
11682;BME280;5897;42.640;23.310;2023-04-09T01:09:12;94095.16;;;7.77;100.00
11682;BME280;5897;42.640;23.310;2023-04-09T01:11:44;94076.19;;;7.58;100.00
11682;BME280;5897;42.640;23.310;2023-04-09T01:14:20;94100.16;;;7.75;100.00
11682;BME280;5897;42.640;23.310;2023-04-09T01:16:52;94109.84;;;7.69;100.00
11682;BME280;5897;42.640;23.310;2023-04-09T01:19:34;94105.72;;;7.61;100.00
11682;BME280;5897;42.640;23.310;2023-04-09T01:22:19;94105.31;;;7.63;100.00
11682;BME280;5897;42.640;23.310;2023-04-09T01:25:03;94106.78;;;7.67;100.00
11682;BME280;5897;42.640;23.310;2023-04-09T01:27:38;94097.22;;;7.66;100.00
11682;BME280;5897;42.640;23.310;2023-04-09T01:30:11;94102.19;;;7.68;100.00
11682;BME280;5897;42.640;23.310;2023-04-09T01:32:41;94104.47;;;7.69;100.00
11682;BME280;5897;42.640;23.310;2023-04-09T01:35:09;94107.53;;;7.71;100.00
11682;BME280;5897;42.640;23.310;2023-04-09T01:37:36;94104.47;;;7.69;100.00
11682;BME280;5897;42.640;23.310;2023-04-09T01:40:06;94100.66;;;7.67;100.00
11682;BME280;5897;42.640;23.310;2023-04-09T01:42:34;94111.06;;;7.65;100.00
11682;BME280;5897;42.640;23.310;2023-04-09T01:45:03;94106.91;;;7.60;100.00
11682;BME280;5897;42.640;23.310;2023-04-09T01:47:32;94107.72;;;7.54;100.00
11682;BME280;5897;42.640;23.310;2023-04-09T01:50:00;94098.53;;;7.51;100.00
11682;BME280;5897;42.640;23.310;2023-04-09T01:52:28;94102.03;;;7.48;100.00
11682;BME280;5897;42.640;23.310;2023-04-09T01:54:55;94102.03;;;7.48;100.00
11682;BME280;5897;42.640;23.310;2023-04-09T01:57:22;94108.16;;;7.49;100.00
11682;BME280;5897;42.640;23.310;2023-04-09T01:59:48;94109.38;;;7.44;100.00
11682;BME280;5897;42.640;23.310;2023-04-09T02:02:18;94110.25;;;7.34;100.00
11682;BME280;5897;42.640;23.310;2023-04-09T02:04:48;94107.22;;;7.32;100.00
11682;BME280;5897;42.640;23.310;2023-04-09T02:07:23;94098.84;;;7.23;100.00
11682;BME280;5897;42.640;23.310;2023-04-09T02:09:52;94104.16;;;7.30;100.00
11682;BME280;5897;42.640;23.310;2023-04-09T02:12:20;94106.13;;;7.26;100.00
11682;BME280;5897;42.640;23.310;2023-04-09T02:14:50;94095.03;;;7.21;100.00
11682;BME280;5897;42.640;23.310;2023-04-09T02:17:17;94101.50;;;7.27;100.00
11682;BME280;5897;42.640;23.310;2023-04-09T02:19:45;94098.84;;;7.23;100.00
11682;BME280;5897;42.640;23.310;2023-04-09T02:22:15;94096.25;;;7.16;100.00
11682;BME280;5897;42.640;23.310;2023-04-09T02:24:42;94101.75;;;7.06;100.00
11682;BME280;5897;42.640;23.310;2023-04-09T02:27:08;94106.88;;;6.90;100.00
11682;BME280;5897;42.640;23.310;2023-04-09T02:29:35;94092.44;;;6.77;100.00
11682;BME280;5897;42.640;23.310;2023-04-09T02:32:02;94103.84;;;6.84;100.00
11682;BME280;5897;42.640;23.310;2023-04-09T02:34:29;94085.56;;;6.72;100.00
11682;BME280;5897;42.640;23.310;2023-04-09T02:36:56;94093.19;;;6.77;100.00
11682;BME280;5897;42.640;23.310;2023-04-09T02:39:24;94093.22;;;6.74;100.00
11682;BME280;5897;42.640;23.310;2023-04-09T02:41:51;94086.47;;;6.55;100.00
11682;BME280;5897;42.640;23.310;2023-04-09T02:44:18;94083.53;;;6.39;100.00
11682;BME280;5897;42.640;23.310;2023-04-09T02:46:46;94097.66;;;6.47;100.00
11682;BME280;5897;42.640;23.310;2023-04-09T02:49:13;94093.44;;;6.49;100.00
11682;BME280;5897;42.640;23.310;2023-04-09T02:51:40;94091.91;;;6.48;100.00
11682;BME280;5897;42.640;23.310;2023-04-09T02:54:06;94089.19;;;6.52;100.00
11682;BME280;5897;42.640;23.310;2023-04-09T02:56:35;94085.09;;;6.40;100.00
11682;BME280;5897;42.640;23.310;2023-04-09T02:59:01;94095.81;;;6.40;100.00
11682;BME280;5897;42.640;23.310;2023-04-09T03:01:28;94088.16;;;6.39;100.00
11682;BME280;5897;42.640;23.310;2023-04-09T03:03:55;94085.22;;;6.23;100.00
11682;BME280;5897;42.640;23.310;2023-04-09T03:06:22;94091.06;;;6.07;100.00
11682;BME280;5897;42.640;23.310;2023-04-09T03:08:48;94086.06;;;6.09;100.00
11682;BME280;5897;42.640;23.310;2023-04-09T03:11:15;94084.56;;;6.05;100.00
11682;BME280;5897;42.640;23.310;2023-04-09T03:13:43;94085.31;;;6.05;100.00
11682;BME280;5897;42.640;23.310;2023-04-09T03:16:10;94090.28;;;6.07;100.00
11682;BME280;5897;42.640;23.310;2023-04-09T03:18:37;94088.34;;;6.14;100.00
11682;BME280;5897;42.640;23.310;2023-04-09T03:21:04;94084.97;;;6.03;100.00
11682;BME280;5897;42.640;23.310;2023-04-09T03:23:32;94092.22;;;6.03;100.00
11682;BME280;5897;42.640;23.310;2023-04-09T03:26:00;94088.75;;;6.09;100.00
11682;BME280;5897;42.640;23.310;2023-04-09T03:28:27;94088.72;;;6.13;100.00
11682;BME280;5897;42.640;23.310;2023-04-09T03:30:55;94087.59;;;6.07;100.00
11682;BME280;5897;42.640;23.310;2023-04-09T03:33:22;94089.88;;;6.12;100.00
11682;BME280;5897;42.640;23.310;2023-04-09T03:35:50;94068.53;;;5.98;100.00
11682;BME280;5897;42.640;23.310;2023-04-09T03:38:16;94089.09;;;6.11;100.00
11682;BME280;5897;42.640;23.310;2023-04-09T03:40:43;94088.34;;;6.11;100.00
11682;BME280;5897;42.640;23.310;2023-04-09T03:43:10;94090.97;;;6.18;100.00
11682;BME280;5897;42.640;23.310;2023-04-09T03:45:37;94086.47;;;6.04;100.00
11682;BME280;5897;42.640;23.310;2023-04-09T03:48:05;94094.53;;;6.04;100.00
11682;BME280;5897;42.640;23.310;2023-04-09T03:50:37;94092.28;;;5.96;100.00
11682;BME280;5897;42.640;23.310;2023-04-09T03:53:04;94096.03;;;6.05;100.00
11682;BME280;5897;42.640;23.310;2023-04-09T03:55:30;94094.94;;;5.99;100.00
11682;BME280;5897;42.640;23.310;2023-04-09T03:57:57;94093.41;;;5.98;100.00
11682;BME280;5897;42.640;23.310;2023-04-09T04:00:24;94095.31;;;6.01;100.00
11682;BME280;5897;42.640;23.310;2023-04-09T04:02:51;94096.13;;;5.95;100.00
11682;BME280;5897;42.640;23.310;2023-04-09T04:05:21;94098.47;;;5.82;100.00
11682;BME280;5897;42.640;23.310;2023-04-09T04:07:48;94103.84;;;5.79;100.00
11682;BME280;5897;42.640;23.310;2023-04-09T04:10:15;94099.59;;;5.88;100.00
11682;BME280;5897;42.640;23.310;2023-04-09T04:12:42;94099.97;;;5.94;100.00
11682;BME280;5897;42.640;23.310;2023-04-09T04:15:09;94094.66;;;5.87;100.00
11682;BME280;5897;42.640;23.310;2023-04-09T04:17:36;94094.97;;;5.92;100.00
11682;BME280;5897;42.640;23.310;2023-04-09T04:20:03;94100.69;;;6.01;100.00
11682;BME280;5897;42.640;23.310;2023-04-09T04:22:32;94095.31;;;6.05;100.00
11682;BME280;5897;42.640;23.310;2023-04-09T04:24:59;94103.31;;;6.08;100.00
11682;BME280;5897;42.640;23.310;2023-04-09T04:27:26;94102.50;;;6.11;100.00
11682;BME280;5897;42.640;23.310;2023-04-09T04:29:53;94103.97;;;6.26;100.00
11682;BME280;5897;42.640;23.310;2023-04-09T04:32:19;94105.75;;;6.43;100.00
11682;BME280;5897;42.640;23.310;2023-04-09T04:34:47;94107.75;;;6.32;100.00
11682;BME280;5897;42.640;23.310;2023-04-09T04:37:15;94105.44;;;6.34;100.00
11682;BME280;5897;42.640;23.310;2023-04-09T04:39:43;94103.41;;;6.45;100.00
11682;BME280;5897;42.640;23.310;2023-04-09T04:42:10;94098.72;;;6.56;100.00
11682;BME280;5897;42.640;23.310;2023-04-09T04:44:36;94101.69;;;6.69;100.00
11682;BME280;5897;42.640;23.310;2023-04-09T04:47:03;94098.91;;;6.83;100.00
11682;BME280;5897;42.640;23.310;2023-04-09T04:49:30;94101.44;;;6.97;100.00
11682;BME280;5897;42.640;23.310;2023-04-09T04:51:56;94101.41;;;7.00;100.00
11682;BME280;5897;42.640;23.310;2023-04-09T04:54:23;94100.16;;;7.12;100.00
11682;BME280;5897;42.640;23.310;2023-04-09T04:56:51;94111.19;;;7.17;100.00
11682;BME280;5897;42.640;23.310;2023-04-09T04:59:18;94103.31;;;7.37;100.00
11682;BME280;5897;42.640;23.310;2023-04-09T05:01:45;94099.47;;;7.38;100.00
11682;BME280;5897;42.640;23.310;2023-04-09T05:04:12;94104.09;;;7.37;100.00
11682;BME280;5897;42.640;23.310;2023-04-09T05:06:39;94102.41;;;7.50;100.00
11682;BME280;5897;42.640;23.310;2023-04-09T05:09:05;94101.66;;;7.46;100.00
11682;BME280;5897;42.640;23.310;2023-04-09T05:11:32;94103.19;;;7.47;100.00
11682;BME280;5897;42.640;23.310;2023-04-09T05:14:00;94108.81;;;7.60;100.00
11682;BME280;5897;42.640;23.310;2023-04-09T05:16:28;94115.66;;;7.64;100.00
11682;BME280;5897;42.640;23.310;2023-04-09T05:18:55;94112.22;;;7.64;100.00
11682;BME280;5897;42.640;23.310;2023-04-09T05:21:21;94110.22;;;7.71;100.00
11682;BME280;5897;42.640;23.310;2023-04-09T05:23:48;94109.75;;;7.76;100.00
11682;BME280;5897;42.640;23.310;2023-04-09T05:26:15;94102.44;;;7.77;100.00
11682;BME280;5897;42.640;23.310;2023-04-09T05:28:42;94110.56;;;7.73;100.00
11682;BME280;5897;42.640;23.310;2023-04-09T05:31:10;94108.19;;;7.79;100.00
11682;BME280;5897;42.640;23.310;2023-04-09T05:33:37;94100.84;;;7.83;100.00
11682;BME280;5897;42.640;23.310;2023-04-09T05:36:04;94105.38;;;7.89;100.00
11682;BME280;5897;42.640;23.310;2023-04-09T05:38:31;94112.59;;;7.92;100.00
11682;BME280;5897;42.640;23.310;2023-04-09T05:40:58;94111.81;;;7.95;100.00
11682;BME280;5897;42.640;23.310;2023-04-09T05:43:25;94111.44;;;7.93;100.00
11682;BME280;5897;42.640;23.310;2023-04-09T05:45:52;94114.72;;;8.08;100.00
11682;BME280;5897;42.640;23.310;2023-04-09T05:48:20;94116.66;;;8.07;100.00
11682;BME280;5897;42.640;23.310;2023-04-09T05:50:48;94114.22;;;8.16;100.00
11682;BME280;5897;42.640;23.310;2023-04-09T05:53:16;94118.88;;;8.12;100.00
11682;BME280;5897;42.640;23.310;2023-04-09T05:55:43;94113.78;;;8.21;100.00
11682;BME280;5897;42.640;23.310;2023-04-09T05:58:10;94109.94;;;8.22;100.00
11682;BME280;5897;42.640;23.310;2023-04-09T06:00:37;94113.78;;;8.21;100.00
11682;BME280;5897;42.640;23.310;2023-04-09T06:03:04;94109.00;;;8.32;100.00
11682;BME280;5897;42.640;23.310;2023-04-09T06:05:32;94113.59;;;8.35;99.34
11682;BME280;5897;42.640;23.310;2023-04-09T06:07:59;94112.31;;;8.43;98.21
11682;BME280;5897;42.640;23.310;2023-04-09T06:10:26;94105.78;;;8.41;97.90
11682;BME280;5897;42.640;23.310;2023-04-09T06:12:53;94121.09;;;8.47;97.46
11682;BME280;5897;42.640;23.310;2023-04-09T06:15:19;94126.38;;;8.54;96.51
11682;BME280;5897;42.640;23.310;2023-04-09T06:17:46;94114.63;;;8.68;96.34
11682;BME280;5897;42.640;23.310;2023-04-09T06:20:14;94117.03;;;8.62;94.78
11682;BME280;5897;42.640;23.310;2023-04-09T06:22:42;94116.53;;;8.67;94.58
11682;BME280;5897;42.640;23.310;2023-04-09T06:25:09;94119.13;;;8.51;95.47
11682;BME280;5897;42.640;23.310;2023-04-09T06:27:36;94115.38;;;8.68;94.76
11682;BME280;5897;42.640;23.310;2023-04-09T06:30:03;94124.06;;;8.79;93.33
11682;BME280;5897;42.640;23.310;2023-04-09T06:32:30;94114.84;;;9.00;92.66
11682;BME280;5897;42.640;23.310;2023-04-09T06:34:57;94115.78;;;9.13;91.92
11682;BME280;5897;42.640;23.310;2023-04-09T06:37:23;94118.56;;;9.29;90.36
11682;BME280;5897;42.640;23.310;2023-04-09T06:39:51;94120.66;;;9.41;87.73
11682;BME280;5897;42.640;23.310;2023-04-09T06:42:18;94124.31;;;9.50;86.03
11682;BME280;5897;42.640;23.310;2023-04-09T06:44:45;94124.56;;;9.59;85.35
11682;BME280;5897;42.640;23.310;2023-04-09T06:47:12;94126.00;;;9.83;85.27
11682;BME280;5897;42.640;23.310;2023-04-09T06:49:39;94124.53;;;9.98;82.94
11682;BME280;5897;42.640;23.310;2023-04-09T06:52:05;94123.69;;;10.01;82.89
11682;BME280;5897;42.640;23.310;2023-04-09T06:54:32;94129.16;;;10.17;83.25
11682;BME280;5897;42.640;23.310;2023-04-09T06:57:01;94127.41;;;10.27;82.69
11682;BME280;5897;42.640;23.310;2023-04-09T06:59:28;94127.44;;;10.43;82.18
11682;BME280;5897;42.640;23.310;2023-04-09T07:01:55;94135.72;;;10.52;78.89
11682;BME280;5897;42.640;23.310;2023-04-09T07:04:22;94133.88;;;10.49;78.71
11682;BME280;5897;42.640;23.310;2023-04-09T07:06:49;94130.59;;;10.57;77.88
11682;BME280;5897;42.640;23.310;2023-04-09T07:09:18;94136.41;;;10.56;79.03
11682;BME280;5897;42.640;23.310;2023-04-09T07:11:45;94134.72;;;10.62;77.25
11682;BME280;5897;42.640;23.310;2023-04-09T07:14:13;94138.34;;;10.39;78.69
11682;BME280;5897;42.640;23.310;2023-04-09T07:16:40;94139.63;;;10.67;75.91
11682;BME280;5897;42.640;23.310;2023-04-09T07:19:07;94144.13;;;10.89;75.30
11682;BME280;5897;42.640;23.310;2023-04-09T07:21:34;94141.91;;;11.16;72.08
11682;BME280;5897;42.640;23.310;2023-04-09T07:24:01;94142.75;;;11.13;69.50
11682;BME280;5897;42.640;23.310;2023-04-09T07:26:28;94145.56;;;11.10;69.65
11682;BME280;5897;42.640;23.310;2023-04-09T07:28:55;94141.41;;;11.05;69.70
11682;BME280;5897;42.640;23.310;2023-04-09T07:31:24;94131.00;;;11.20;70.37
11682;BME280;5897;42.640;23.310;2023-04-09T07:33:51;94134.19;;;11.31;70.56
11682;BME280;5897;42.640;23.310;2023-04-09T07:36:18;94141.38;;;11.37;70.38
11682;BME280;5897;42.640;23.310;2023-04-09T07:38:45;94145.56;;;11.54;68.49
11682;BME280;5897;42.640;23.310;2023-04-09T07:41:12;94140.13;;;11.70;68.71
11682;BME280;5897;42.640;23.310;2023-04-09T07:43:39;94138.22;;;11.55;71.63
11682;BME280;5897;42.640;23.310;2023-04-09T07:46:06;94140.16;;;11.54;69.54
11682;BME280;5897;42.640;23.310;2023-04-09T07:48:35;94137.97;;;11.49;69.93
11682;BME280;5897;42.640;23.310;2023-04-09T07:51:01;94155.06;;;11.46;70.71
11682;BME280;5897;42.640;23.310;2023-04-09T07:53:28;94152.88;;;11.41;71.01
11682;BME280;5897;42.640;23.310;2023-04-09T07:55:56;94123.38;;;11.15;70.32
11682;BME280;5897;42.640;23.310;2023-04-09T07:58:22;94155.41;;;11.16;71.46
11682;BME280;5897;42.640;23.310;2023-04-09T08:00:49;94155.78;;;11.18;72.35
11682;BME280;5897;42.640;23.310;2023-04-09T08:03:16;94154.75;;;10.96;72.98
11682;BME280;5897;42.640;23.310;2023-04-09T08:05:45;94165.91;;;11.14;71.85
11682;BME280;5897;42.640;23.310;2023-04-09T08:08:11;94157.03;;;11.14;71.67
11682;BME280;5897;42.640;23.310;2023-04-09T08:10:38;94147.31;;;11.16;70.25
11682;BME280;5897;42.640;23.310;2023-04-09T08:13:07;94154.38;;;11.42;69.56
11682;BME280;5897;42.640;23.310;2023-04-09T08:15:34;94163.00;;;11.37;69.70
11682;BME280;5897;42.640;23.310;2023-04-09T08:18:02;94160.16;;;11.12;70.53
11682;BME280;5897;42.640;23.310;2023-04-09T08:20:28;94156.38;;;11.10;71.21
11682;BME280;5897;42.640;23.310;2023-04-09T08:22:58;94153.38;;;11.20;71.39
11682;BME280;5897;42.640;23.310;2023-04-09T08:25:25;94153.03;;;11.34;70.50
11682;BME280;5897;42.640;23.310;2023-04-09T08:27:52;94149.81;;;11.39;69.81
11682;BME280;5897;42.640;23.310;2023-04-09T08:30:19;94158.50;;;11.63;69.42
11682;BME280;5897;42.640;23.310;2023-04-09T08:32:45;94163.22;;;11.75;69.17
11682;BME280;5897;42.640;23.310;2023-04-09T08:35:12;94162.69;;;11.80;68.74
11682;BME280;5897;42.640;23.310;2023-04-09T08:37:40;94158.03;;;11.80;67.86
11682;BME280;5897;42.640;23.310;2023-04-09T08:40:09;94150.91;;;11.86;68.74
11682;BME280;5897;42.640;23.310;2023-04-09T08:42:38;94155.81;;;11.63;68.53
11682;BME280;5897;42.640;23.310;2023-04-09T08:45:10;94149.72;;;11.43;69.61
11682;BME280;5897;42.640;23.310;2023-04-09T08:47:37;94150.06;;;11.61;70.08
11682;BME280;5897;42.640;23.310;2023-04-09T08:50:06;94149.09;;;11.67;68.98
11682;BME280;5897;42.640;23.310;2023-04-09T08:52:34;94159.22;;;11.79;68.64
11682;BME280;5897;42.640;23.310;2023-04-09T08:55:01;94154.31;;;12.02;68.11
11682;BME280;5897;42.640;23.310;2023-04-09T08:57:29;94156.31;;;12.27;66.37
11682;BME280;5897;42.640;23.310;2023-04-09T08:59:56;94148.59;;;12.13;67.50
11682;BME280;5897;42.640;23.310;2023-04-09T09:02:23;94150.09;;;12.14;67.48
11682;BME280;5897;42.640;23.310;2023-04-09T09:04:49;94149.28;;;12.29;66.34
11682;BME280;5897;42.640;23.310;2023-04-09T09:07:19;94142.78;;;12.27;67.08
11682;BME280;5897;42.640;23.310;2023-04-09T09:09:53;94146.38;;;12.49;66.51
11682;BME280;5897;42.640;23.310;2023-04-09T09:12:32;94146.06;;;12.72;64.98
11682;BME280;5897;42.640;23.310;2023-04-09T09:14:59;94147.91;;;12.75;62.84
11682;BME280;5897;42.640;23.310;2023-04-09T09:17:27;94135.44;;;12.90;62.56
11682;BME280;5897;42.640;23.310;2023-04-09T09:19:54;94137.50;;;12.98;62.20
11682;BME280;5897;42.640;23.310;2023-04-09T09:22:21;94136.16;;;12.90;62.62
11682;BME280;5897;42.640;23.310;2023-04-09T09:24:49;94140.09;;;13.14;61.95
11682;BME280;5897;42.640;23.310;2023-04-09T09:27:34;94136.44;;;13.42;60.80
11682;BME280;5897;42.640;23.310;2023-04-09T09:30:05;94146.44;;;13.67;58.63
11682;BME280;5897;42.640;23.310;2023-04-09T09:32:32;94135.41;;;13.83;57.41
11682;BME280;5897;42.640;23.310;2023-04-09T09:35:01;94119.00;;;14.08;56.77
11682;BME280;5897;42.640;23.310;2023-04-09T09:37:28;94120.81;;;14.11;56.87
11682;BME280;5897;42.640;23.310;2023-04-09T09:39:55;94122.97;;;13.73;57.77
11682;BME280;5897;42.640;23.310;2023-04-09T09:42:22;94121.84;;;13.83;57.43
11682;BME280;5897;42.640;23.310;2023-04-09T09:44:52;94124.06;;;13.97;57.50
11682;BME280;5897;42.640;23.310;2023-04-09T09:47:21;94113.56;;;14.08;56.08
11682;BME280;5897;42.640;23.310;2023-04-09T09:49:50;94109.66;;;14.30;54.94
11682;BME280;5897;42.640;23.310;2023-04-09T09:52:21;94111.78;;;14.14;55.88
11682;BME280;5897;42.640;23.310;2023-04-09T09:54:51;94104.59;;;13.77;57.23
11682;BME280;5897;42.640;23.310;2023-04-09T09:57:19;94102.06;;;14.04;56.78
11682;BME280;5897;42.640;23.310;2023-04-09T09:59:54;94109.47;;;13.82;56.25
11682;BME280;5897;42.640;23.310;2023-04-09T10:02:27;94106.88;;;14.00;56.48
11682;BME280;5897;42.640;23.310;2023-04-09T10:04:59;94109.81;;;14.14;55.35
11682;BME280;5897;42.640;23.310;2023-04-09T10:07:27;94097.50;;;14.01;55.39
11682;BME280;5897;42.640;23.310;2023-04-09T10:09:55;94103.78;;;14.32;55.67
11682;BME280;5897;42.640;23.310;2023-04-09T10:12:25;94101.84;;;14.41;54.61
11682;BME280;5897;42.640;23.310;2023-04-09T10:14:55;94103.03;;;14.71;54.41
11682;BME280;5897;42.640;23.310;2023-04-09T10:17:25;94097.81;;;14.85;52.84
11682;BME280;5897;42.640;23.310;2023-04-09T10:19:57;94087.66;;;14.86;51.42
11682;BME280;5897;42.640;23.310;2023-04-09T10:22:28;94091.69;;;14.72;52.18
11682;BME280;5897;42.640;23.310;2023-04-09T10:24:57;94093.63;;;15.02;51.41
11682;BME280;5897;42.640;23.310;2023-04-09T10:27:25;94099.66;;;15.06;50.21
11682;BME280;5897;42.640;23.310;2023-04-09T10:29:52;94101.94;;;15.08;49.86
11682;BME280;5897;42.640;23.310;2023-04-09T10:32:21;94092.88;;;15.11;50.20
11682;BME280;5897;42.640;23.310;2023-04-09T10:34:51;94094.41;;;15.30;49.65
11682;BME280;5897;42.640;23.310;2023-04-09T10:37:21;94097.81;;;15.52;46.94
11682;BME280;5897;42.640;23.310;2023-04-09T10:39:48;94089.63;;;15.70;46.01
11682;BME280;5897;42.640;23.310;2023-04-09T10:42:18;94066.63;;;15.80;46.27
11682;BME280;5897;42.640;23.310;2023-04-09T10:45:03;94077.97;;;15.78;45.91
11682;BME280;5897;42.640;23.310;2023-04-09T10:47:33;94084.47;;;15.90;46.11
11682;BME280;5897;42.640;23.310;2023-04-09T10:50:14;94084.16;;;15.97;46.49
11682;BME280;5897;42.640;23.310;2023-04-09T10:52:41;94084.47;;;15.90;45.09
11682;BME280;5897;42.640;23.310;2023-04-09T10:55:09;94083.28;;;15.46;44.93
11682;BME280;5897;42.640;23.310;2023-04-09T10:57:36;94067.84;;;15.61;45.99
11682;BME280;5897;42.640;23.310;2023-04-09T11:00:03;94077.50;;;15.89;45.04
11682;BME280;5897;42.640;23.310;2023-04-09T11:05:33;94064.72;;;16.31;43.92
11682;BME280;5897;42.640;23.310;2023-04-09T11:08:06;94065.28;;;16.35;43.90
11682;BME280;5897;42.640;23.310;2023-04-09T11:10:36;94065.38;;;15.99;44.55
11682;BME280;5897;42.640;23.310;2023-04-09T11:13:03;94069.66;;;15.91;44.20
11682;BME280;5897;42.640;23.310;2023-04-09T11:15:31;94064.03;;;15.94;44.92
11682;BME280;5897;42.640;23.310;2023-04-09T11:18:01;94056.94;;;15.70;44.47
11682;BME280;5897;42.640;23.310;2023-04-09T11:20:28;94065.09;;;15.61;44.69
11682;BME280;5897;42.640;23.310;2023-04-09T11:22:56;94064.84;;;15.50;44.95
11682;BME280;5897;42.640;23.310;2023-04-09T11:25:25;94039.06;;;15.06;46.26
11682;BME280;5897;42.640;23.310;2023-04-09T11:27:52;94057.41;;;15.32;46.58
11682;BME280;5897;42.640;23.310;2023-04-09T11:30:20;94063.13;;;15.25;46.61
11682;BME280;5897;42.640;23.310;2023-04-09T11:32:47;94056.44;;;15.17;46.10
11682;BME280;5897;42.640;23.310;2023-04-09T11:35:20;94058.06;;;14.97;46.18
11682;BME280;5897;42.640;23.310;2023-04-09T11:37:48;94062.00;;;14.96;46.23
11682;BME280;5897;42.640;23.310;2023-04-09T11:40:17;94057.41;;;14.75;46.37
11682;BME280;5897;42.640;23.310;2023-04-09T11:42:45;94047.09;;;14.61;46.46
11682;BME280;5897;42.640;23.310;2023-04-09T11:45:14;94061.88;;;14.20;48.46
11682;BME280;5897;42.640;23.310;2023-04-09T11:47:42;94059.72;;;13.85;50.35
11682;BME280;5897;42.640;23.310;2023-04-09T11:50:10;94061.59;;;13.54;52.30
11682;BME280;5897;42.640;23.310;2023-04-09T11:52:39;94054.81;;;13.58;53.89
11682;BME280;5897;42.640;23.310;2023-04-09T11:55:07;94048.81;;;13.20;54.63
11682;BME280;5897;42.640;23.310;2023-04-09T11:57:42;94054.13;;;13.24;55.28
11682;BME280;5897;42.640;23.310;2023-04-09T12:00:10;94043.19;;;13.15;56.79
11682;BME280;5897;42.640;23.310;2023-04-09T12:02:40;94043.41;;;13.20;58.64
11682;BME280;5897;42.640;23.310;2023-04-09T12:05:09;94041.28;;;13.03;57.09
11682;BME280;5897;42.640;23.310;2023-04-09T12:07:36;94044.41;;;13.01;56.58
11682;BME280;5897;42.640;23.310;2023-04-09T12:10:06;94030.34;;;12.81;56.71
11682;BME280;5897;42.640;23.310;2023-04-09T12:12:41;94032.47;;;12.99;55.13
11682;BME280;5897;42.640;23.310;2023-04-09T12:15:18;94028.13;;;13.01;54.28
11682;BME280;5897;42.640;23.310;2023-04-09T12:17:49;94034.78;;;13.00;55.29
11682;BME280;5897;42.640;23.310;2023-04-09T12:20:32;94037.16;;;12.86;54.74
11682;BME280;5897;42.640;23.310;2023-04-09T12:23:01;94038.25;;;12.76;56.19
11682;BME280;5897;42.640;23.310;2023-04-09T12:25:31;94038.25;;;12.76;55.49
11682;BME280;5897;42.640;23.310;2023-04-09T12:27:59;94014.22;;;12.53;56.11
11682;BME280;5897;42.640;23.310;2023-04-09T12:30:26;94025.31;;;13.05;55.32
11682;BME280;5897;42.640;23.310;2023-04-09T12:32:54;94022.00;;;13.44;54.04
11682;BME280;5897;42.640;23.310;2023-04-09T12:35:21;94027.88;;;13.64;53.41
11682;BME280;5897;42.640;23.310;2023-04-09T12:37:48;94002.31;;;13.52;53.24
11682;BME280;5897;42.640;23.310;2023-04-09T12:40:16;94013.31;;;13.49;53.91
11682;BME280;5897;42.640;23.310;2023-04-09T12:42:44;94018.41;;;13.68;52.29
11682;BME280;5897;42.640;23.310;2023-04-09T12:45:13;94024.66;;;13.35;53.15
11682;BME280;5897;42.640;23.310;2023-04-09T12:47:40;94015.97;;;13.40;53.98
11682;BME280;5897;42.640;23.310;2023-04-09T12:50:09;94013.31;;;13.49;52.52
11682;BME280;5897;42.640;23.310;2023-04-09T12:52:36;94016.19;;;13.33;51.60
11682;BME280;5897;42.640;23.310;2023-04-09T12:55:05;94027.03;;;13.33;52.84
11682;BME280;5897;42.640;23.310;2023-04-09T12:57:32;94011.03;;;13.26;53.58
11682;BME280;5897;42.640;23.310;2023-04-09T13:00:00;94007.88;;;13.49;52.51
11682;BME280;5897;42.640;23.310;2023-04-09T13:02:29;94013.22;;;13.18;52.96
11682;BME280;5897;42.640;23.310;2023-04-09T13:04:56;94009.22;;;13.23;51.36
11682;BME280;5897;42.640;23.310;2023-04-09T13:07:22;94005.25;;;13.36;52.84